This is the latest recevied weather packets stored in our database for station/object CT2IRJ-11. If no packets are shown the sender has not sent any weather packets the latest 10 day(s).
| Time | Temp. | Humidity | Pressure | Rain* | Wind** | Luminosity | Snow |
|---|---|---|---|---|---|---|---|
| 1777135410 | 25° C | 58% | 1014.2 hPa | 0 mm | - | 125 W/m² | - |
| 1777135110 | 25° C | 58% | 1014.2 hPa | 0 mm | - | 104 W/m² | - |
| 1777134810 | 25° C | 57% | 1014.2 hPa | 0 mm | - | 105 W/m² | - |
| 1777134510 | 25° C | 58% | 1014.2 hPa | 0 mm | - | 124 W/m² | - |
| 1777134210 | 25° C | 57% | 1013.9 hPa | 0 mm | - | 134 W/m² | - |
| 1777133909 | 25.56° C | 56% | 1013.9 hPa | 0 mm | - | 139 W/m² | - |
| 1777133609 | 25.56° C | 55% | 1013.9 hPa | 0 mm | - | 119 W/m² | - |
| 1777133309 | 25.56° C | 55% | 1013.9 hPa | 0 mm | - | 96 W/m² | - |
| 1777133009 | 26.67° C | 56% | 1013.5 hPa | 0 mm | - | 90 W/m² | - |
| 1777132710 | 27.22° C | 54% | 1013.5 hPa | 0 mm | - | 146 W/m² | - |
| 1777132410 | 27.22° C | 55% | 1013.5 hPa | 0 mm | - | 300 W/m² | - |
| 1777132110 | 27.78° C | 55% | 1013.5 hPa | 0 mm | - | 220 W/m² | - |
| 1777131809 | 27.78° C | 53% | 1013.5 hPa | 0 mm | - | 507 W/m² | - |
| 1777131510 | 27.78° C | 54% | 1013.5 hPa | 0 mm | - | 528 W/m² | - |
| 1777131210 | 27.22° C | 54% | 1013.5 hPa | 0 mm | - | 486 W/m² | - |
| 1777130910 | 26.67° C | 56% | 1013.5 hPa | 0 mm | - | 439 W/m² | - |
| 1777130610 | 27.22° C | 57% | 1013.2 hPa | 0 mm | - | 212 W/m² | - |
| 1777130309 | 27.78° C | 54% | 1013.5 hPa | 0 mm | - | 543 W/m² | - |
| 1777130009 | 27.78° C | 54% | 1013.2 hPa | 0 mm | - | 572 W/m² | - |
| 1777129709 | 27.78° C | 56% | 1013.5 hPa | 0 mm | - | 565 W/m² | - |
| 1777129410 | 27.22° C | 55% | 1013.5 hPa | 0 mm | - | 535 W/m² | - |
| 1777129110 | 26.11° C | 59% | 1013.2 hPa | 0 mm | - | 263 W/m² | - |
| 1777128809 | 27.22° C | 56% | 1013.5 hPa | 0 mm | - | 475 W/m² | - |
| 1777128509 | 28.33° C | 55% | 1013.5 hPa | 0 mm | - | 249 W/m² | - |
| 1777128210 | 28.89° C | 53% | 1013.9 hPa | 0 mm | - | 649 W/m² | - |
* Rain latest hour (hover to see other rain measurements)
** Current wind speed in m/s (hover to see current wind gust speed)